sensor_id;sensor_type;location;lat;lon;timestamp;P1;durP1;ratioP1;P2;durP2;ratioP2
13868;SDS011;7004;48.206;16.402;2023-06-10T00:02:21;5.43;;;4.63;;
13868;SDS011;7004;48.206;16.402;2023-06-10T00:04:47;5.30;;;4.57;;
13868;SDS011;7004;48.206;16.402;2023-06-10T00:07:13;5.13;;;4.43;;
13868;SDS011;7004;48.206;16.402;2023-06-10T00:09:39;5.17;;;4.37;;
13868;SDS011;7004;48.206;16.402;2023-06-10T00:12:06;5.00;;;4.50;;
13868;SDS011;7004;48.206;16.402;2023-06-10T00:14:38;5.67;;;4.40;;
13868;SDS011;7004;48.206;16.402;2023-06-10T00:17:07;6.00;;;5.10;;
13868;SDS011;7004;48.206;16.402;2023-06-10T00:19:37;7.20;;;4.50;;
13868;SDS011;7004;48.206;16.402;2023-06-10T00:22:07;4.63;;;4.10;;
13868;SDS011;7004;48.206;16.402;2023-06-10T00:24:34;4.87;;;4.40;;
13868;SDS011;7004;48.206;16.402;2023-06-10T00:27:00;4.80;;;4.30;;
13868;SDS011;7004;48.206;16.402;2023-06-10T00:29:26;5.03;;;4.53;;
13868;SDS011;7004;48.206;16.402;2023-06-10T00:31:52;5.70;;;4.80;;
13868;SDS011;7004;48.206;16.402;2023-06-10T00:34:23;5.40;;;4.63;;
13868;SDS011;7004;48.206;16.402;2023-06-10T00:36:50;5.67;;;4.93;;
13868;SDS011;7004;48.206;16.402;2023-06-10T00:39:16;6.53;;;5.03;;
13868;SDS011;7004;48.206;16.402;2023-06-10T00:41:42;5.90;;;5.00;;
13868;SDS011;7004;48.206;16.402;2023-06-10T00:44:08;5.50;;;5.00;;
13868;SDS011;7004;48.206;16.402;2023-06-10T00:46:34;7.10;;;5.00;;
13868;SDS011;7004;48.206;16.402;2023-06-10T00:49:00;5.63;;;5.03;;
13868;SDS011;7004;48.206;16.402;2023-06-10T00:51:27;7.80;;;5.20;;
13868;SDS011;7004;48.206;16.402;2023-06-10T00:53:53;6.50;;;4.63;;
13868;SDS011;7004;48.206;16.402;2023-06-10T00:56:20;5.43;;;4.90;;
13868;SDS011;7004;48.206;16.402;2023-06-10T00:58:47;6.40;;;5.47;;
13868;SDS011;7004;48.206;16.402;2023-06-10T01:01:13;7.27;;;5.10;;
13868;SDS011;7004;48.206;16.402;2023-06-10T01:03:40;5.43;;;4.80;;
13868;SDS011;7004;48.206;16.402;2023-06-10T01:09:25;6.13;;;4.90;;
13868;SDS011;7004;48.206;16.402;2023-06-10T01:14:44;5.47;;;4.87;;
13868;SDS011;7004;48.206;16.402;2023-06-10T01:17:11;5.30;;;4.37;;
13868;SDS011;7004;48.206;16.402;2023-06-10T01:19:38;5.23;;;4.60;;
13868;SDS011;7004;48.206;16.402;2023-06-10T01:22:06;5.90;;;4.80;;
13868;SDS011;7004;48.206;16.402;2023-06-10T01:24:32;6.07;;;5.03;;
13868;SDS011;7004;48.206;16.402;2023-06-10T01:27:00;4.93;;;4.43;;
13868;SDS011;7004;48.206;16.402;2023-06-10T01:29:54;5.67;;;4.57;;
13868;SDS011;7004;48.206;16.402;2023-06-10T01:35:01;5.07;;;4.50;;
13868;SDS011;7004;48.206;16.402;2023-06-10T01:37:28;5.70;;;5.10;;
13868;SDS011;7004;48.206;16.402;2023-06-10T01:39:57;6.90;;;5.37;;
13868;SDS011;7004;48.206;16.402;2023-06-10T01:42:25;6.33;;;5.27;;
13868;SDS011;7004;48.206;16.402;2023-06-10T01:44:52;5.63;;;4.70;;
13868;SDS011;7004;48.206;16.402;2023-06-10T01:47:22;7.27;;;5.70;;
13868;SDS011;7004;48.206;16.402;2023-06-10T01:49:48;7.40;;;6.07;;
13868;SDS011;7004;48.206;16.402;2023-06-10T01:52:14;7.00;;;5.40;;
13868;SDS011;7004;48.206;16.402;2023-06-10T01:54:40;8.13;;;5.60;;
13868;SDS011;7004;48.206;16.402;2023-06-10T01:57:06;7.67;;;6.47;;
13868;SDS011;7004;48.206;16.402;2023-06-10T01:59:40;10.27;;;7.10;;
13868;SDS011;7004;48.206;16.402;2023-06-10T02:02:09;7.20;;;6.50;;
13868;SDS011;7004;48.206;16.402;2023-06-10T02:04:36;8.03;;;6.37;;
13868;SDS011;7004;48.206;16.402;2023-06-10T02:07:02;8.27;;;6.80;;
13868;SDS011;7004;48.206;16.402;2023-06-10T02:09:32;9.30;;;7.20;;
13868;SDS011;7004;48.206;16.402;2023-06-10T02:12:04;8.63;;;7.40;;
13868;SDS011;7004;48.206;16.402;2023-06-10T02:14:32;8.90;;;7.70;;
13868;SDS011;7004;48.206;16.402;2023-06-10T02:16:59;8.37;;;7.47;;
13868;SDS011;7004;48.206;16.402;2023-06-10T02:19:28;10.17;;;7.97;;
13868;SDS011;7004;48.206;16.402;2023-06-10T02:21:54;9.37;;;7.80;;
13868;SDS011;7004;48.206;16.402;2023-06-10T02:24:21;10.13;;;8.83;;
13868;SDS011;7004;48.206;16.402;2023-06-10T02:26:48;10.57;;;9.03;;
13868;SDS011;7004;48.206;16.402;2023-06-10T02:29:14;9.00;;;8.10;;
13868;SDS011;7004;48.206;16.402;2023-06-10T02:31:40;9.53;;;8.00;;
13868;SDS011;7004;48.206;16.402;2023-06-10T02:34:06;10.67;;;8.80;;
13868;SDS011;7004;48.206;16.402;2023-06-10T02:36:32;10.07;;;8.40;;
13868;SDS011;7004;48.206;16.402;2023-06-10T02:39:01;8.93;;;8.03;;
13868;SDS011;7004;48.206;16.402;2023-06-10T02:41:30;9.17;;;8.10;;
13868;SDS011;7004;48.206;16.402;2023-06-10T02:43:56;10.73;;;8.27;;
13868;SDS011;7004;48.206;16.402;2023-06-10T02:46:22;10.40;;;9.30;;
13868;SDS011;7004;48.206;16.402;2023-06-10T02:48:48;10.50;;;9.40;;
13868;SDS011;7004;48.206;16.402;2023-06-10T02:51:17;12.40;;;8.57;;
13868;SDS011;7004;48.206;16.402;2023-06-10T02:53:43;9.73;;;8.13;;
13868;SDS011;7004;48.206;16.402;2023-06-10T02:56:09;11.53;;;8.33;;
13868;SDS011;7004;48.206;16.402;2023-06-10T02:58:35;10.17;;;8.70;;
13868;SDS011;7004;48.206;16.402;2023-06-10T03:01:01;11.17;;;8.67;;
13868;SDS011;7004;48.206;16.402;2023-06-10T03:03:27;10.83;;;8.33;;
13868;SDS011;7004;48.206;16.402;2023-06-10T03:05:53;10.30;;;9.00;;
13868;SDS011;7004;48.206;16.402;2023-06-10T03:08:19;10.57;;;8.83;;
13868;SDS011;7004;48.206;16.402;2023-06-10T03:10:45;11.00;;;9.07;;
13868;SDS011;7004;48.206;16.402;2023-06-10T03:13:11;13.47;;;9.40;;
13868;SDS011;7004;48.206;16.402;2023-06-10T03:15:37;12.63;;;9.73;;
13868;SDS011;7004;48.206;16.402;2023-06-10T03:18:06;11.37;;;9.30;;
13868;SDS011;7004;48.206;16.402;2023-06-10T03:20:33;12.07;;;9.13;;
13868;SDS011;7004;48.206;16.402;2023-06-10T03:23:04;13.93;;;9.10;;
13868;SDS011;7004;48.206;16.402;2023-06-10T03:25:34;12.13;;;9.53;;
13868;SDS011;7004;48.206;16.402;2023-06-10T03:28:00;11.50;;;9.53;;
13868;SDS011;7004;48.206;16.402;2023-06-10T03:30:27;11.60;;;9.10;;
13868;SDS011;7004;48.206;16.402;2023-06-10T03:32:53;10.27;;;8.97;;
13868;SDS011;7004;48.206;16.402;2023-06-10T03:35:19;12.63;;;9.90;;
13868;SDS011;7004;48.206;16.402;2023-06-10T03:37:45;11.37;;;9.30;;
13868;SDS011;7004;48.206;16.402;2023-06-10T03:40:12;12.83;;;8.90;;
13868;SDS011;7004;48.206;16.402;2023-06-10T03:42:38;11.53;;;9.53;;
13868;SDS011;7004;48.206;16.402;2023-06-10T03:45:04;11.93;;;8.80;;
13868;SDS011;7004;48.206;16.402;2023-06-10T03:47:34;10.93;;;8.57;;
13868;SDS011;7004;48.206;16.402;2023-06-10T03:50:05;10.23;;;9.10;;
13868;SDS011;7004;48.206;16.402;2023-06-10T03:52:35;11.63;;;9.40;;
13868;SDS011;7004;48.206;16.402;2023-06-10T03:55:03;13.37;;;9.80;;
13868;SDS011;7004;48.206;16.402;2023-06-10T03:57:30;13.03;;;10.13;;
13868;SDS011;7004;48.206;16.402;2023-06-10T03:59:56;10.83;;;9.23;;
13868;SDS011;7004;48.206;16.402;2023-06-10T04:02:23;8.90;;;8.00;;
13868;SDS011;7004;48.206;16.402;2023-06-10T04:04:49;10.37;;;9.27;;
13868;SDS011;7004;48.206;16.402;2023-06-10T04:07:16;12.07;;;10.10;;
13868;SDS011;7004;48.206;16.402;2023-06-10T04:09:45;13.63;;;10.37;;
13868;SDS011;7004;48.206;16.402;2023-06-10T04:12:11;12.70;;;9.67;;
13868;SDS011;7004;48.206;16.402;2023-06-10T04:14:38;11.27;;;9.00;;
13868;SDS011;7004;48.206;16.402;2023-06-10T04:17:05;12.20;;;9.43;;
13868;SDS011;7004;48.206;16.402;2023-06-10T04:19:32;14.40;;;10.00;;
13868;SDS011;7004;48.206;16.402;2023-06-10T04:22:00;12.87;;;9.87;;
13868;SDS011;7004;48.206;16.402;2023-06-10T04:24:28;12.70;;;10.23;;
13868;SDS011;7004;48.206;16.402;2023-06-10T04:26:54;12.60;;;10.60;;
13868;SDS011;7004;48.206;16.402;2023-06-10T04:29:20;11.60;;;9.83;;
13868;SDS011;7004;48.206;16.402;2023-06-10T04:31:46;11.30;;;9.27;;
13868;SDS011;7004;48.206;16.402;2023-06-10T04:34:12;11.00;;;9.53;;
13868;SDS011;7004;48.206;16.402;2023-06-10T04:36:38;11.07;;;9.33;;
13868;SDS011;7004;48.206;16.402;2023-06-10T04:39:05;15.07;;;11.17;;
13868;SDS011;7004;48.206;16.402;2023-06-10T04:41:31;14.07;;;10.60;;
13868;SDS011;7004;48.206;16.402;2023-06-10T04:43:57;14.90;;;10.80;;
13868;SDS011;7004;48.206;16.402;2023-06-10T04:46:23;13.97;;;11.03;;
13868;SDS011;7004;48.206;16.402;2023-06-10T04:48:49;13.43;;;11.60;;
13868;SDS011;7004;48.206;16.402;2023-06-10T04:51:16;16.43;;;11.10;;
13868;SDS011;7004;48.206;16.402;2023-06-10T04:53:42;14.90;;;12.10;;
13868;SDS011;7004;48.206;16.402;2023-06-10T04:56:08;14.27;;;11.43;;
13868;SDS011;7004;48.206;16.402;2023-06-10T04:58:34;14.67;;;11.67;;
13868;SDS011;7004;48.206;16.402;2023-06-10T05:01:00;14.23;;;11.53;;
13868;SDS011;7004;48.206;16.402;2023-06-10T05:03:27;13.17;;;11.20;;
13868;SDS011;7004;48.206;16.402;2023-06-10T05:05:53;17.40;;;12.43;;
13868;SDS011;7004;48.206;16.402;2023-06-10T05:08:19;14.57;;;12.00;;
13868;SDS011;7004;48.206;16.402;2023-06-10T05:10:46;17.73;;;11.73;;
13868;SDS011;7004;48.206;16.402;2023-06-10T05:13:12;14.40;;;11.90;;
13868;SDS011;7004;48.206;16.402;2023-06-10T05:15:38;14.03;;;12.10;;
13868;SDS011;7004;48.206;16.402;2023-06-10T05:18:05;16.80;;;11.83;;
13868;SDS011;7004;48.206;16.402;2023-06-10T05:20:31;14.53;;;11.97;;
13868;SDS011;7004;48.206;16.402;2023-06-10T05:22:57;15.13;;;12.57;;
13868;SDS011;7004;48.206;16.402;2023-06-10T05:25:25;14.90;;;11.87;;
13868;SDS011;7004;48.206;16.402;2023-06-10T05:27:52;14.07;;;11.60;;
13868;SDS011;7004;48.206;16.402;2023-06-10T05:30:18;16.40;;;12.00;;
13868;SDS011;7004;48.206;16.402;2023-06-10T05:32:45;13.87;;;11.47;;
13868;SDS011;7004;48.206;16.402;2023-06-10T05:35:11;14.90;;;12.13;;
13868;SDS011;7004;48.206;16.402;2023-06-10T05:37:37;17.90;;;12.50;;
13868;SDS011;7004;48.206;16.402;2023-06-10T05:40:03;14.43;;;11.57;;
13868;SDS011;7004;48.206;16.402;2023-06-10T05:42:30;14.33;;;12.03;;
13868;SDS011;7004;48.206;16.402;2023-06-10T05:44:56;17.33;;;12.63;;
13868;SDS011;7004;48.206;16.402;2023-06-10T05:47:22;16.40;;;12.07;;
13868;SDS011;7004;48.206;16.402;2023-06-10T05:49:48;15.57;;;12.80;;
13868;SDS011;7004;48.206;16.402;2023-06-10T05:52:17;18.43;;;14.00;;
13868;SDS011;7004;48.206;16.402;2023-06-10T05:54:43;16.63;;;13.27;;
13868;SDS011;7004;48.206;16.402;2023-06-10T05:57:09;17.83;;;13.30;;
13868;SDS011;7004;48.206;16.402;2023-06-10T05:59:36;16.60;;;12.90;;
13868;SDS011;7004;48.206;16.402;2023-06-10T06:02:02;15.30;;;12.23;;
13868;SDS011;7004;48.206;16.402;2023-06-10T06:04:28;16.70;;;13.03;;
13868;SDS011;7004;48.206;16.402;2023-06-10T06:06:55;15.83;;;12.30;;
13868;SDS011;7004;48.206;16.402;2023-06-10T06:09:21;17.70;;;12.97;;
13868;SDS011;7004;48.206;16.402;2023-06-10T06:11:47;21.00;;;13.97;;
13868;SDS011;7004;48.206;16.402;2023-06-10T06:14:13;19.47;;;14.37;;
13868;SDS011;7004;48.206;16.402;2023-06-10T06:16:40;20.83;;;14.13;;
13868;SDS011;7004;48.206;16.402;2023-06-10T06:19:06;19.13;;;13.47;;
13868;SDS011;7004;48.206;16.402;2023-06-10T06:21:32;21.40;;;14.63;;
13868;SDS011;7004;48.206;16.402;2023-06-10T06:23:59;23.00;;;15.60;;
13868;SDS011;7004;48.206;16.402;2023-06-10T06:26:25;18.00;;;14.07;;
13868;SDS011;7004;48.206;16.402;2023-06-10T06:28:52;18.57;;;14.13;;
13868;SDS011;7004;48.206;16.402;2023-06-10T06:31:18;19.13;;;14.70;;
13868;SDS011;7004;48.206;16.402;2023-06-10T06:33:44;19.23;;;14.40;;
13868;SDS011;7004;48.206;16.402;2023-06-10T06:36:10;18.63;;;14.20;;
13868;SDS011;7004;48.206;16.402;2023-06-10T06:38:36;20.30;;;14.50;;
13868;SDS011;7004;48.206;16.402;2023-06-10T06:41:02;19.47;;;13.93;;
13868;SDS011;7004;48.206;16.402;2023-06-10T06:43:32;19.80;;;14.77;;
13868;SDS011;7004;48.206;16.402;2023-06-10T06:45:58;22.57;;;15.53;;
13868;SDS011;7004;48.206;16.402;2023-06-10T06:48:24;23.20;;;15.03;;
13868;SDS011;7004;48.206;16.402;2023-06-10T06:50:50;19.63;;;14.43;;
13868;SDS011;7004;48.206;16.402;2023-06-10T06:53:17;17.53;;;14.10;;
13868;SDS011;7004;48.206;16.402;2023-06-10T06:55:43;20.20;;;14.70;;
13868;SDS011;7004;48.206;16.402;2023-06-10T06:58:09;18.37;;;15.17;;
13868;SDS011;7004;48.206;16.402;2023-06-10T07:00:35;21.20;;;14.93;;
13868;SDS011;7004;48.206;16.402;2023-06-10T07:03:01;19.93;;;14.40;;
13868;SDS011;7004;48.206;16.402;2023-06-10T07:05:27;20.17;;;14.40;;
13868;SDS011;7004;48.206;16.402;2023-06-10T07:07:53;21.53;;;16.23;;
13868;SDS011;7004;48.206;16.402;2023-06-10T07:10:23;21.73;;;14.60;;
13868;SDS011;7004;48.206;16.402;2023-06-10T07:12:52;19.70;;;14.53;;
13868;SDS011;7004;48.206;16.402;2023-06-10T07:15:19;20.53;;;15.20;;
13868;SDS011;7004;48.206;16.402;2023-06-10T07:17:45;19.63;;;15.30;;
13868;SDS011;7004;48.206;16.402;2023-06-10T07:20:12;24.20;;;14.87;;
13868;SDS011;7004;48.206;16.402;2023-06-10T07:22:40;20.47;;;15.50;;
13868;SDS011;7004;48.206;16.402;2023-06-10T07:25:07;22.07;;;15.07;;
13868;SDS011;7004;48.206;16.402;2023-06-10T07:27:34;20.13;;;15.00;;
13868;SDS011;7004;48.206;16.402;2023-06-10T07:30:02;21.17;;;15.67;;
13868;SDS011;7004;48.206;16.402;2023-06-10T07:32:33;19.27;;;14.93;;
13868;SDS011;7004;48.206;16.402;2023-06-10T07:34:59;21.87;;;15.33;;
13868;SDS011;7004;48.206;16.402;2023-06-10T07:37:25;18.10;;;14.70;;
13868;SDS011;7004;48.206;16.402;2023-06-10T07:39:51;21.00;;;15.13;;
13868;SDS011;7004;48.206;16.402;2023-06-10T07:42:18;19.10;;;15.03;;
13868;SDS011;7004;48.206;16.402;2023-06-10T07:44:44;19.13;;;14.90;;
13868;SDS011;7004;48.206;16.402;2023-06-10T07:47:10;17.90;;;14.67;;
13868;SDS011;7004;48.206;16.402;2023-06-10T07:49:36;18.93;;;14.47;;
13868;SDS011;7004;48.206;16.402;2023-06-10T07:52:02;18.33;;;14.00;;
13868;SDS011;7004;48.206;16.402;2023-06-10T07:54:28;21.47;;;16.27;;
13868;SDS011;7004;48.206;16.402;2023-06-10T07:56:54;18.23;;;14.10;;
13868;SDS011;7004;48.206;16.402;2023-06-10T07:59:21;17.67;;;14.03;;
13868;SDS011;7004;48.206;16.402;2023-06-10T08:01:47;18.30;;;14.30;;
13868;SDS011;7004;48.206;16.402;2023-06-10T08:04:13;19.00;;;14.50;;
13868;SDS011;7004;48.206;16.402;2023-06-10T08:06:39;18.47;;;13.60;;
13868;SDS011;7004;48.206;16.402;2023-06-10T08:09:05;18.70;;;14.13;;
13868;SDS011;7004;48.206;16.402;2023-06-10T08:11:31;18.77;;;14.70;;
13868;SDS011;7004;48.206;16.402;2023-06-10T08:13:57;18.77;;;14.50;;
13868;SDS011;7004;48.206;16.402;2023-06-10T08:16:23;16.87;;;14.07;;
13868;SDS011;7004;48.206;16.402;2023-06-10T08:18:50;16.53;;;13.67;;
13868;SDS011;7004;48.206;16.402;2023-06-10T08:21:16;15.80;;;13.07;;
13868;SDS011;7004;48.206;16.402;2023-06-10T08:23:42;17.57;;;13.77;;
13868;SDS011;7004;48.206;16.402;2023-06-10T08:26:09;15.80;;;12.90;;
13868;SDS011;7004;48.206;16.402;2023-06-10T08:28:35;17.53;;;14.77;;
13868;SDS011;7004;48.206;16.402;2023-06-10T08:31:01;16.77;;;13.23;;
13868;SDS011;7004;48.206;16.402;2023-06-10T08:33:28;18.57;;;14.03;;
13868;SDS011;7004;48.206;16.402;2023-06-10T08:35:54;19.47;;;15.83;;
13868;SDS011;7004;48.206;16.402;2023-06-10T08:38:20;18.83;;;13.80;;
13868;SDS011;7004;48.206;16.402;2023-06-10T08:40:46;18.20;;;14.37;;
13868;SDS011;7004;48.206;16.402;2023-06-10T08:43:31;18.63;;;13.70;;
13868;SDS011;7004;48.206;16.402;2023-06-10T08:46:04;22.80;;;15.33;;
13868;SDS011;7004;48.206;16.402;2023-06-10T08:48:38;18.57;;;13.60;;
13868;SDS011;7004;48.206;16.402;2023-06-10T08:51:12;17.00;;;13.60;;
13868;SDS011;7004;48.206;16.402;2023-06-10T08:53:50;19.97;;;15.20;;
13868;SDS011;7004;48.206;16.402;2023-06-10T08:56:34;17.73;;;14.03;;
13868;SDS011;7004;48.206;16.402;2023-06-10T08:59:06;17.17;;;13.40;;
13868;SDS011;7004;48.206;16.402;2023-06-10T09:01:32;18.17;;;13.30;;
13868;SDS011;7004;48.206;16.402;2023-06-10T09:03:59;18.37;;;13.30;;
13868;SDS011;7004;48.206;16.402;2023-06-10T09:06:25;17.80;;;13.80;;
13868;SDS011;7004;48.206;16.402;2023-06-10T09:08:52;18.97;;;14.17;;
13868;SDS011;7004;48.206;16.402;2023-06-10T09:11:18;18.80;;;13.97;;
13868;SDS011;7004;48.206;16.402;2023-06-10T09:13:45;16.63;;;13.00;;
13868;SDS011;7004;48.206;16.402;2023-06-10T09:16:11;17.03;;;13.77;;
13868;SDS011;7004;48.206;16.402;2023-06-10T09:18:39;16.57;;;13.23;;
13868;SDS011;7004;48.206;16.402;2023-06-10T09:21:05;15.13;;;12.83;;
13868;SDS011;7004;48.206;16.402;2023-06-10T09:23:31;15.07;;;13.20;;
13868;SDS011;7004;48.206;16.402;2023-06-10T09:25:58;17.40;;;13.47;;
13868;SDS011;7004;48.206;16.402;2023-06-10T09:28:24;15.70;;;13.57;;
13868;SDS011;7004;48.206;16.402;2023-06-10T09:31:01;15.13;;;12.90;;
13868;SDS011;7004;48.206;16.402;2023-06-10T09:33:29;16.47;;;13.70;;
13868;SDS011;7004;48.206;16.402;2023-06-10T09:35:56;13.53;;;12.10;;
13868;SDS011;7004;48.206;16.402;2023-06-10T09:38:29;15.90;;;13.37;;
13868;SDS011;7004;48.206;16.402;2023-06-10T09:40:57;15.97;;;12.83;;
13868;SDS011;7004;48.206;16.402;2023-06-10T09:43:37;15.93;;;12.10;;
13868;SDS011;7004;48.206;16.402;2023-06-10T09:46:16;14.73;;;12.43;;
13868;SDS011;7004;48.206;16.402;2023-06-10T09:48:44;13.93;;;11.97;;
13868;SDS011;7004;48.206;16.402;2023-06-10T09:51:13;13.67;;;11.93;;
13868;SDS011;7004;48.206;16.402;2023-06-10T09:53:40;15.37;;;12.53;;
13868;SDS011;7004;48.206;16.402;2023-06-10T09:56:06;13.97;;;11.70;;
13868;SDS011;7004;48.206;16.402;2023-06-10T09:58:38;13.10;;;11.50;;
13868;SDS011;7004;48.206;16.402;2023-06-10T10:01:12;16.40;;;12.73;;
13868;SDS011;7004;48.206;16.402;2023-06-10T10:03:47;15.60;;;12.40;;
13868;SDS011;7004;48.206;16.402;2023-06-10T10:06:17;16.17;;;12.20;;
13868;SDS011;7004;48.206;16.402;2023-06-10T10:08:47;15.20;;;12.80;;
13868;SDS011;7004;48.206;16.402;2023-06-10T10:11:19;14.57;;;11.97;;
13868;SDS011;7004;48.206;16.402;2023-06-10T10:13:51;13.60;;;12.07;;
13868;SDS011;7004;48.206;16.402;2023-06-10T10:16:25;13.50;;;11.67;;
13868;SDS011;7004;48.206;16.402;2023-06-10T10:19:07;15.00;;;11.57;;
13868;SDS011;7004;48.206;16.402;2023-06-10T10:21:38;13.13;;;11.20;;
13868;SDS011;7004;48.206;16.402;2023-06-10T10:24:17;13.67;;;11.30;;
13868;SDS011;7004;48.206;16.402;2023-06-10T10:26:47;14.80;;;11.23;;
13868;SDS011;7004;48.206;16.402;2023-06-10T10:31:50;11.80;;;10.47;;
13868;SDS011;7004;48.206;16.402;2023-06-10T10:34:21;12.53;;;9.40;;
13868;SDS011;7004;48.206;16.402;2023-06-10T10:37:00;12.17;;;10.93;;
13868;SDS011;7004;48.206;16.402;2023-06-10T10:39:28;10.73;;;9.60;;
13868;SDS011;7004;48.206;16.402;2023-06-10T10:41:55;14.43;;;10.80;;
13868;SDS011;7004;48.206;16.402;2023-06-10T10:44:22;12.33;;;10.60;;
13868;SDS011;7004;48.206;16.402;2023-06-10T10:46:49;11.57;;;10.37;;
13868;SDS011;7004;48.206;16.402;2023-06-10T10:49:17;12.67;;;10.10;;
13868;SDS011;7004;48.206;16.402;2023-06-10T10:51:57;11.27;;;9.70;;
13868;SDS011;7004;48.206;16.402;2023-06-10T10:54:28;11.90;;;10.50;;
13868;SDS011;7004;48.206;16.402;2023-06-10T10:57:10;11.40;;;9.73;;
13868;SDS011;7004;48.206;16.402;2023-06-10T10:59:44;11.23;;;10.03;;
13868;SDS011;7004;48.206;16.402;2023-06-10T11:05:09;11.70;;;10.60;;
13868;SDS011;7004;48.206;16.402;2023-06-10T11:07:51;11.57;;;9.77;;
13868;SDS011;7004;48.206;16.402;2023-06-10T11:13:22;11.07;;;9.87;;
13868;SDS011;7004;48.206;16.402;2023-06-10T11:15:48;10.83;;;9.60;;
13868;SDS011;7004;48.206;16.402;2023-06-10T11:28:41;10.63;;;9.53;;
13868;SDS011;7004;48.206;16.402;2023-06-10T11:33:55;9.70;;;8.80;;
13868;SDS011;7004;48.206;16.402;2023-06-10T11:36:28;10.20;;;9.17;;
13868;SDS011;7004;48.206;16.402;2023-06-10T11:38:56;12.97;;;10.60;;
13868;SDS011;7004;48.206;16.402;2023-06-10T11:41:28;13.33;;;11.17;;
13868;SDS011;7004;48.206;16.402;2023-06-10T11:44:17;11.63;;;9.47;;
13868;SDS011;7004;48.206;16.402;2023-06-10T11:46:42;10.20;;;9.20;;
13868;SDS011;7004;48.206;16.402;2023-06-10T11:49:11;10.47;;;9.37;;
13868;SDS011;7004;48.206;16.402;2023-06-10T11:51:38;10.70;;;9.70;;
13868;SDS011;7004;48.206;16.402;2023-06-10T11:54:09;11.00;;;9.63;;
13868;SDS011;7004;48.206;16.402;2023-06-10T11:56:35;10.73;;;9.27;;
13868;SDS011;7004;48.206;16.402;2023-06-10T11:59:03;10.60;;;9.27;;
13868;SDS011;7004;48.206;16.402;2023-06-10T12:01:36;11.67;;;10.37;;
13868;SDS011;7004;48.206;16.402;2023-06-10T12:04:08;10.00;;;9.00;;
13868;SDS011;7004;48.206;16.402;2023-06-10T12:06:49;11.27;;;10.07;;
13868;SDS011;7004;48.206;16.402;2023-06-10T12:11:58;11.43;;;9.90;;
13868;SDS011;7004;48.206;16.402;2023-06-10T12:19:59;9.23;;;8.33;;
13868;SDS011;7004;48.206;16.402;2023-06-10T12:22:30;10.10;;;9.00;;
13868;SDS011;7004;48.206;16.402;2023-06-10T12:25:08;9.37;;;8.43;;
13868;SDS011;7004;48.206;16.402;2023-06-10T12:27:35;9.93;;;8.93;;
13868;SDS011;7004;48.206;16.402;2023-06-10T12:30:06;12.93;;;8.67;;
13868;SDS011;7004;48.206;16.402;2023-06-10T12:32:37;9.83;;;8.93;;
13868;SDS011;7004;48.206;16.402;2023-06-10T12:35:20;10.70;;;9.10;;
13868;SDS011;7004;48.206;16.402;2023-06-10T12:38:04;9.50;;;8.57;;
13868;SDS011;7004;48.206;16.402;2023-06-10T12:40:37;12.07;;;9.87;;
13868;SDS011;7004;48.206;16.402;2023-06-10T12:43:08;10.07;;;8.83;;
13868;SDS011;7004;48.206;16.402;2023-06-10T12:45:35;13.53;;;10.70;;
13868;SDS011;7004;48.206;16.402;2023-06-10T12:48:17;9.80;;;8.50;;
13868;SDS011;7004;48.206;16.402;2023-06-10T12:50:52;11.40;;;9.03;;
13868;SDS011;7004;48.206;16.402;2023-06-10T12:53:20;14.00;;;11.00;;
13868;SDS011;7004;48.206;16.402;2023-06-10T12:55:52;13.20;;;11.47;;
13868;SDS011;7004;48.206;16.402;2023-06-10T12:58:21;13.47;;;11.27;;
13868;SDS011;7004;48.206;16.402;2023-06-10T13:00:48;16.00;;;12.27;;
13868;SDS011;7004;48.206;16.402;2023-06-10T13:03:17;16.53;;;12.17;;
13868;SDS011;7004;48.206;16.402;2023-06-10T13:05:44;16.67;;;13.17;;
13868;SDS011;7004;48.206;16.402;2023-06-10T13:08:10;14.07;;;12.23;;
13868;SDS011;7004;48.206;16.402;2023-06-10T13:10:36;13.40;;;11.50;;
13868;SDS011;7004;48.206;16.402;2023-06-10T13:13:03;13.77;;;12.27;;
13868;SDS011;7004;48.206;16.402;2023-06-10T13:15:31;13.83;;;12.33;;
13868;SDS011;7004;48.206;16.402;2023-06-10T13:18:02;13.93;;;12.47;;
13868;SDS011;7004;48.206;16.402;2023-06-10T13:20:29;15.13;;;11.77;;
13868;SDS011;7004;48.206;16.402;2023-06-10T13:22:56;12.87;;;10.73;;
13868;SDS011;7004;48.206;16.402;2023-06-10T13:25:22;11.87;;;10.67;;
13868;SDS011;7004;48.206;16.402;2023-06-10T13:27:48;11.60;;;10.40;;
13868;SDS011;7004;48.206;16.402;2023-06-10T13:30:14;11.83;;;10.57;;
13868;SDS011;7004;48.206;16.402;2023-06-10T13:32:40;11.03;;;9.83;;
13868;SDS011;7004;48.206;16.402;2023-06-10T13:35:07;11.90;;;10.67;;
13868;SDS011;7004;48.206;16.402;2023-06-10T13:37:34;11.70;;;10.33;;
13868;SDS011;7004;48.206;16.402;2023-06-10T13:40:00;14.17;;;10.70;;
13868;SDS011;7004;48.206;16.402;2023-06-10T13:42:28;11.70;;;10.53;;
13868;SDS011;7004;48.206;16.402;2023-06-10T13:44:54;12.37;;;11.07;;
13868;SDS011;7004;48.206;16.402;2023-06-10T13:47:21;13.10;;;11.00;;
13868;SDS011;7004;48.206;16.402;2023-06-10T13:49:48;16.90;;;11.53;;
13868;SDS011;7004;48.206;16.402;2023-06-10T13:52:14;12.87;;;11.33;;
13868;SDS011;7004;48.206;16.402;2023-06-10T13:54:40;12.60;;;11.03;;
13868;SDS011;7004;48.206;16.402;2023-06-10T13:57:06;14.67;;;12.00;;
13868;SDS011;7004;48.206;16.402;2023-06-10T13:59:35;14.97;;;12.50;;
13868;SDS011;7004;48.206;16.402;2023-06-10T14:02:02;15.47;;;12.30;;
13868;SDS011;7004;48.206;16.402;2023-06-10T14:04:28;13.10;;;11.60;;
13868;SDS011;7004;48.206;16.402;2023-06-10T14:06:55;15.03;;;12.60;;
13868;SDS011;7004;48.206;16.402;2023-06-10T14:09:22;14.90;;;11.77;;
13868;SDS011;7004;48.206;16.402;2023-06-10T14:11:48;13.97;;;12.03;;
13868;SDS011;7004;48.206;16.402;2023-06-10T14:14:14;15.57;;;12.60;;
13868;SDS011;7004;48.206;16.402;2023-06-10T14:16:40;15.27;;;12.40;;
13868;SDS011;7004;48.206;16.402;2023-06-10T14:19:06;17.40;;;12.77;;
13868;SDS011;7004;48.206;16.402;2023-06-10T14:21:32;16.30;;;12.57;;
13868;SDS011;7004;48.206;16.402;2023-06-10T14:23:58;14.47;;;12.97;;
13868;SDS011;7004;48.206;16.402;2023-06-10T14:26:25;16.63;;;13.47;;
13868;SDS011;7004;48.206;16.402;2023-06-10T14:28:51;14.37;;;12.60;;
13868;SDS011;7004;48.206;16.402;2023-06-10T14:31:17;14.43;;;12.60;;
13868;SDS011;7004;48.206;16.402;2023-06-10T14:33:43;14.73;;;13.20;;
13868;SDS011;7004;48.206;16.402;2023-06-10T14:36:10;15.67;;;13.80;;
13868;SDS011;7004;48.206;16.402;2023-06-10T14:38:36;17.40;;;13.73;;
13868;SDS011;7004;48.206;16.402;2023-06-10T14:41:02;17.23;;;14.73;;
13868;SDS011;7004;48.206;16.402;2023-06-10T14:43:30;18.50;;;14.87;;
13868;SDS011;7004;48.206;16.402;2023-06-10T14:45:56;19.03;;;14.03;;
13868;SDS011;7004;48.206;16.402;2023-06-10T14:48:22;16.93;;;14.10;;
13868;SDS011;7004;48.206;16.402;2023-06-10T14:50:48;16.93;;;13.20;;
13868;SDS011;7004;48.206;16.402;2023-06-10T14:53:20;17.60;;;14.03;;
13868;SDS011;7004;48.206;16.402;2023-06-10T14:55:47;14.37;;;12.53;;
13868;SDS011;7004;48.206;16.402;2023-06-10T14:58:13;17.00;;;13.87;;
13868;SDS011;7004;48.206;16.402;2023-06-10T15:00:39;15.57;;;13.87;;
13868;SDS011;7004;48.206;16.402;2023-06-10T15:03:05;14.83;;;13.33;;
13868;SDS011;7004;48.206;16.402;2023-06-10T15:05:31;19.40;;;15.03;;
13868;SDS011;7004;48.206;16.402;2023-06-10T15:07:59;15.73;;;14.07;;
13868;SDS011;7004;48.206;16.402;2023-06-10T15:10:26;15.67;;;13.97;;
13868;SDS011;7004;48.206;16.402;2023-06-10T15:12:52;15.20;;;13.20;;